createdAt,value
2018-03-23T00:01:40.276Z,6.03
2018-03-23T00:04:14.003Z,7.68
2018-03-23T00:06:47.641Z,6.53
2018-03-23T00:09:21.169Z,7.25
2018-03-23T00:11:55.465Z,7.72
2018-03-23T00:14:29.175Z,6.60
2018-03-23T00:17:02.817Z,7.00
2018-03-23T00:19:36.354Z,6.40
2018-03-23T00:22:10.867Z,6.95
2018-03-23T00:24:44.408Z,7.40
2018-03-23T00:27:17.997Z,6.62
2018-03-23T00:29:51.577Z,7.45
2018-03-23T00:32:25.121Z,8.55
2018-03-23T00:34:58.675Z,9.50
2018-03-23T00:37:32.988Z,9.32
2018-03-23T00:40:07.306Z,7.87
2018-03-23T00:42:41.620Z,8.15
2018-03-23T00:45:15.294Z,7.30
2018-03-23T00:47:48.911Z,6.68
2018-03-23T00:50:22.471Z,7.70
2018-03-23T00:52:56.036Z,6.50
2018-03-23T00:55:29.596Z,7.57
2018-03-23T00:58:03.125Z,7.07
2018-03-23T01:00:36.730Z,7.85
2018-03-23T01:03:10.343Z,7.60
2018-03-23T01:05:44.654Z,7.90
2018-03-23T01:08:18.240Z,7.93
2018-03-23T01:10:51.875Z,7.75
2018-03-23T01:13:25.448Z,8.52
2018-03-23T01:15:59.779Z,7.85
2018-03-23T01:18:33.307Z,7.95
2018-03-23T01:21:07.687Z,8.98
2018-03-23T01:23:41.212Z,9.27
2018-03-23T01:26:14.767Z,8.48
2018-03-23T01:28:48.492Z,8.77
2018-03-23T01:31:22.049Z,8.00
2018-03-23T01:33:56.528Z,9.98
2018-03-23T01:36:30.147Z,10.48
2018-03-23T01:39:03.702Z,9.77
2018-03-23T01:41:37.248Z,8.98
2018-03-23T01:44:11.731Z,8.50
2018-03-23T01:46:46.142Z,7.93
2018-03-23T01:49:19.745Z,8.52
2018-03-23T01:51:53.283Z,8.13
2018-03-23T01:54:26.828Z,9.63
2018-03-23T01:57:00.449Z,9.60
2018-03-23T01:59:34.287Z,9.13
2018-03-23T02:02:07.831Z,8.98
2018-03-23T02:04:41.331Z,9.88
2018-03-23T02:07:15.043Z,10.18
2018-03-23T02:09:49.374Z,10.40
2018-03-23T02:12:23.150Z,10.05
2018-03-23T02:14:56.797Z,9.32
2018-03-23T02:17:30.427Z,8.93
2018-03-23T02:20:03.969Z,9.02
2018-03-23T02:22:37.702Z,9.82
2018-03-23T02:25:11.281Z,8.88
2018-03-23T02:27:44.882Z,9.30
2018-03-23T02:30:19.408Z,9.15
2018-03-23T02:32:53.016Z,9.27
2018-03-23T02:35:26.601Z,9.70
2018-03-23T02:38:00.207Z,15.20
2018-03-23T02:40:33.813Z,11.18
2018-03-23T02:43:07.407Z,10.07
2018-03-23T02:45:41.133Z,9.82
2018-03-23T02:48:14.716Z,9.10
2018-03-23T02:50:48.250Z,9.57
2018-03-23T02:53:21.817Z,9.88
2018-03-23T02:55:55.385Z,10.40
2018-03-23T02:58:29.126Z,9.10
2018-03-23T03:01:02.784Z,8.98
2018-03-23T03:03:37.163Z,9.93
2018-03-23T03:06:11.563Z,9.15
2018-03-23T03:08:45.185Z,8.57
2018-03-23T03:11:18.809Z,9.30
2018-03-23T03:13:52.356Z,9.43
2018-03-23T03:16:25.971Z,9.43
2018-03-23T03:18:59.565Z,8.40
2018-03-23T03:21:33.171Z,9.25
2018-03-23T03:24:06.763Z,9.40
2018-03-23T03:26:41.089Z,9.20
2018-03-23T03:29:14.696Z,9.30
2018-03-23T03:31:48.287Z,9.00
2018-03-23T03:34:21.922Z,10.77
2018-03-23T03:36:55.483Z,9.95
2018-03-23T03:39:29.091Z,10.38
2018-03-23T03:42:02.683Z,9.45
2018-03-23T03:44:36.315Z,8.70
2018-03-23T03:47:09.872Z,11.18
2018-03-23T03:49:43.568Z,8.65
2018-03-23T03:52:17.096Z,9.43
2018-03-23T03:54:51.519Z,9.60
2018-03-23T03:57:25.135Z,9.68
2018-03-23T03:59:59.446Z,9.75
2018-03-23T04:02:33.217Z,9.40
2018-03-23T04:05:06.752Z,9.15
2018-03-23T04:07:40.342Z,9.27
2018-03-23T04:10:13.835Z,9.60
2018-03-23T04:12:47.559Z,10.30
2018-03-23T04:15:21.118Z,9.60
2018-03-23T04:17:54.657Z,9.20
2018-03-23T04:20:28.255Z,9.32
2018-03-23T04:23:01.811Z,8.57
2018-03-23T04:25:35.343Z,10.02
2018-03-23T04:28:08.933Z,10.02
2018-03-23T04:30:42.530Z,9.30
2018-03-23T04:33:16.045Z,9.40
2018-03-23T04:35:50.548Z,9.38
2018-03-23T04:38:24.050Z,9.40
2018-03-23T04:40:57.627Z,11.82
2018-03-23T04:43:31.136Z,8.00
2018-03-23T04:46:04.887Z,11.63
2018-03-23T04:48:38.459Z,15.02
2018-03-23T04:51:12.066Z,8.75
2018-03-23T04:53:45.660Z,9.25
2018-03-23T04:56:19.180Z,9.05
2018-03-23T04:58:52.751Z,8.85
2018-03-23T05:01:26.274Z,8.82
2018-03-23T05:03:59.904Z,7.50
2018-03-23T05:06:33.569Z,8.75
2018-03-23T05:09:07.110Z,8.88
2018-03-23T05:11:40.673Z,8.50
2018-03-23T05:14:15.186Z,8.77
2018-03-23T05:16:49.465Z,8.55
2018-03-23T05:19:23.261Z,9.50
2018-03-23T05:21:56.837Z,9.57
2018-03-23T05:24:30.610Z,9.50
2018-03-23T05:27:04.196Z,9.13
2018-03-23T05:29:37.784Z,9.57
2018-03-23T05:32:11.508Z,8.98
2018-03-23T05:34:45.107Z,9.93
2018-03-23T05:37:19.527Z,12.07
2018-03-23T05:39:53.136Z,12.60
2018-03-23T05:42:26.747Z,15.57
2018-03-23T05:45:00.315Z,12.07
2018-03-23T05:47:34.050Z,9.98
2018-03-23T05:50:07.639Z,9.98
2018-03-23T05:52:41.244Z,11.07
2018-03-23T05:55:14.834Z,10.18
2018-03-23T05:57:48.395Z,11.63
2018-03-23T06:00:22.097Z,11.15
2018-03-23T06:02:55.651Z,11.30
2018-03-23T06:05:29.224Z,10.93
2018-03-23T06:08:02.863Z,11.07
2018-03-23T06:10:37.190Z,10.50
2018-03-23T06:13:10.707Z,10.10
2018-03-23T06:15:44.305Z,10.60
2018-03-23T06:18:17.988Z,10.05
2018-03-23T06:20:51.573Z,10.70
2018-03-23T06:23:25.890Z,10.60
2018-03-23T06:26:00.198Z,9.90
2018-03-23T06:28:34.527Z,10.80
2018-03-23T06:31:08.137Z,11.60
2018-03-23T06:33:41.734Z,11.75
2018-03-23T06:36:15.317Z,10.68
2018-03-23T06:38:48.865Z,10.48
2018-03-23T06:41:22.408Z,12.93
2018-03-23T06:43:56.157Z,13.02
2018-03-23T06:46:29.709Z,9.63
2018-03-23T06:49:03.997Z,7.65
2018-03-23T06:51:37.574Z,10.35
2018-03-23T06:54:11.158Z,7.60
2018-03-23T06:56:44.722Z,9.85
2018-03-23T06:59:18.282Z,11.38
2018-03-23T07:01:52.075Z,11.65
2018-03-23T07:04:26.476Z,10.10
2018-03-23T07:07:00.181Z,9.68
2018-03-23T07:09:33.780Z,9.85
2018-03-23T07:12:08.095Z,10.05
2018-03-23T07:14:41.736Z,9.30
2018-03-23T07:17:15.287Z,9.70
2018-03-23T07:19:48.966Z,8.75
2018-03-23T07:22:22.479Z,10.10
2018-03-23T07:24:56.098Z,10.13
2018-03-23T07:27:29.694Z,9.45
2018-03-23T07:30:04.030Z,9.27
2018-03-23T07:32:37.609Z,10.02
2018-03-23T07:35:11.617Z,8.90
2018-03-23T07:37:45.267Z,10.50
2018-03-23T07:40:18.850Z,11.10
2018-03-23T07:42:52.421Z,11.07
2018-03-23T07:45:26.030Z,10.30
2018-03-23T07:47:59.626Z,10.13
2018-03-23T07:50:33.259Z,10.30
2018-03-23T07:53:06.833Z,8.32
2018-03-23T07:55:40.424Z,8.73
2018-03-23T07:58:14.022Z,9.45
2018-03-23T08:00:47.567Z,7.80
2018-03-23T08:03:21.119Z,7.82
2018-03-23T08:05:54.670Z,9.10
2018-03-23T08:08:28.250Z,8.13
2018-03-23T08:11:01.794Z,8.18
2018-03-23T08:13:35.540Z,7.60
2018-03-23T08:16:09.896Z,7.87
2018-03-23T08:18:43.573Z,5.47
2018-03-23T08:21:17.981Z,4.95
2018-03-23T08:23:51.680Z,5.37
2018-03-23T08:26:25.350Z,6.28
2018-03-23T08:28:58.882Z,5.90
2018-03-23T08:31:32.463Z,5.20
2018-03-23T08:34:06.062Z,5.65
2018-03-23T08:36:39.628Z,5.10
2018-03-23T08:39:13.150Z,4.78
2018-03-23T08:41:46.962Z,5.65
2018-03-23T08:44:21.281Z,9.38
2018-03-23T08:46:54.929Z,6.80
2018-03-23T08:49:28.673Z,6.68
2018-03-23T08:52:02.356Z,7.60
2018-03-23T08:54:35.925Z,6.80
2018-03-23T08:57:09.476Z,16.50
2018-03-23T08:59:43.039Z,13.07
2018-03-23T09:02:16.606Z,9.07
2018-03-23T09:04:50.119Z,9.25
2018-03-23T09:07:24.398Z,18.90
2018-03-23T09:09:58.056Z,6.93
2018-03-23T09:12:31.623Z,6.53
2018-03-23T09:15:05.168Z,7.18
2018-03-23T09:17:44.671Z,6.93
2018-03-23T09:20:18.206Z,8.07
2018-03-23T09:22:51.766Z,20.08
2018-03-23T09:25:25.307Z,40.92
2018-03-23T09:27:58.840Z,6.70
2018-03-23T09:30:33.188Z,6.15
2018-03-23T09:33:06.806Z,4.47
2018-03-23T09:35:40.354Z,6.60
2018-03-23T09:38:13.972Z,8.45
2018-03-23T09:40:47.507Z,22.13
2018-03-23T09:43:21.083Z,7.70
2018-03-23T09:45:54.630Z,5.75
2018-03-23T09:48:29.006Z,5.37
2018-03-23T09:51:02.582Z,5.20
2018-03-23T09:53:36.183Z,9.70
2018-03-23T09:56:09.716Z,6.05
2018-03-23T09:58:43.302Z,5.35
2018-03-23T10:01:16.847Z,5.20
2018-03-23T10:03:50.493Z,4.28
2018-03-23T10:06:24.011Z,4.72
2018-03-23T10:08:57.602Z,5.75
2018-03-23T10:11:31.236Z,4.70
2018-03-23T10:14:05.730Z,4.68
2018-03-23T10:16:40.375Z,4.65
2018-03-23T10:19:13.963Z,8.32
2018-03-23T10:21:47.496Z,8.77
2018-03-23T10:24:21.123Z,7.30
2018-03-23T10:26:54.645Z,8.05
2018-03-23T10:29:28.276Z,4.90
2018-03-23T10:32:02.026Z,12.45
2018-03-23T10:34:35.739Z,4.90
2018-03-23T10:37:09.314Z,7.10
2018-03-23T10:39:42.952Z,4.28
2018-03-23T10:42:16.493Z,9.32
2018-03-23T10:44:50.161Z,13.95
2018-03-23T10:47:23.678Z,8.90
2018-03-23T10:49:57.363Z,5.15
2018-03-23T10:52:30.960Z,9.73
2018-03-23T10:55:04.571Z,7.10
2018-03-23T10:57:38.186Z,4.60
2018-03-23T11:00:12.488Z,4.72
2018-03-23T11:02:51.734Z,4.60
2018-03-23T11:05:26.028Z,5.40
2018-03-23T11:07:59.756Z,7.50
2018-03-23T11:10:34.057Z,5.32
2018-03-23T11:13:07.667Z,5.50
2018-03-23T11:15:42.025Z,6.43
2018-03-23T11:18:15.759Z,4.82
2018-03-23T11:20:49.326Z,4.90
2018-03-23T11:23:22.870Z,5.30
2018-03-23T11:25:56.392Z,5.07
2018-03-23T11:28:29.974Z,5.30
2018-03-23T11:31:03.578Z,4.82
2018-03-23T11:33:37.280Z,6.22
2018-03-23T11:36:10.814Z,5.55
2018-03-23T11:38:44.357Z,5.55
2018-03-23T11:41:18.698Z,5.47
2018-03-23T11:43:52.323Z,9.43
2018-03-23T11:46:25.894Z,8.65
2018-03-23T11:48:59.438Z,5.43
2018-03-23T11:51:33.089Z,5.80
2018-03-23T11:54:06.626Z,5.20
2018-03-23T11:56:40.198Z,5.28
2018-03-23T11:59:13.774Z,5.12
2018-03-23T12:01:48.130Z,6.03
2018-03-23T12:04:21.650Z,5.78
2018-03-23T12:06:56.046Z,5.35
2018-03-23T12:09:29.755Z,5.78
2018-03-23T12:12:03.376Z,4.80
2018-03-23T12:14:37.065Z,5.93
2018-03-23T12:17:10.609Z,6.43
2018-03-23T12:19:44.874Z,5.75
2018-03-23T12:22:18.554Z,5.37
2018-03-23T12:24:52.070Z,5.60
2018-03-23T12:27:25.617Z,6.20
2018-03-23T12:29:59.174Z,4.85
2018-03-23T12:32:33.481Z,5.28
2018-03-23T12:35:07.074Z,5.95
2018-03-23T12:37:40.623Z,5.60
2018-03-23T12:40:14.167Z,6.80
2018-03-23T12:42:47.786Z,7.55
2018-03-23T12:45:21.332Z,7.50
2018-03-23T12:47:54.862Z,8.73
2018-03-23T12:50:28.406Z,6.03
2018-03-23T12:53:01.963Z,5.68
2018-03-23T12:55:35.619Z,7.00
2018-03-23T12:58:09.302Z,5.18
2018-03-23T13:00:42.824Z,6.82
2018-03-23T13:03:16.362Z,6.72
2018-03-23T13:05:49.981Z,6.15
2018-03-23T13:08:23.573Z,7.32
2018-03-23T13:10:57.166Z,30.48
2018-03-23T13:13:30.781Z,11.45
2018-03-23T13:16:04.378Z,8.05
2018-03-23T13:18:38.026Z,5.80
2018-03-23T13:21:12.391Z,5.53
2018-03-23T13:23:46.152Z,5.60
2018-03-23T13:26:19.741Z,5.50
2018-03-23T13:28:53.306Z,6.65
2018-03-23T13:31:26.902Z,5.78
2018-03-23T13:34:00.431Z,6.45
2018-03-23T13:36:34.012Z,5.07
2018-03-23T13:39:07.574Z,5.30
2018-03-23T13:41:41.086Z,6.12
2018-03-23T13:44:14.719Z,15.38
2018-03-23T13:46:48.385Z,11.18
2018-03-23T13:49:21.924Z,12.90
2018-03-23T13:51:55.518Z,11.25
2018-03-23T13:54:29.062Z,6.65
2018-03-23T13:57:02.634Z,5.45
2018-03-23T13:59:41.991Z,5.80
2018-03-23T14:02:15.491Z,9.77
2018-03-23T14:04:49.217Z,7.95
2018-03-23T14:07:23.568Z,5.65
2018-03-23T14:09:57.282Z,4.87
2018-03-23T14:12:30.868Z,5.72
2018-03-23T14:15:04.407Z,4.95
2018-03-23T14:17:38.842Z,5.03
2018-03-23T14:20:12.405Z,4.35
2018-03-23T14:22:46.813Z,5.28
2018-03-23T14:25:20.408Z,5.50
2018-03-23T14:27:53.918Z,5.15
2018-03-23T14:30:27.498Z,6.75
2018-03-23T14:33:01.090Z,6.12
2018-03-23T14:35:34.694Z,5.00
2018-03-23T14:38:08.213Z,4.55
2018-03-23T14:40:41.809Z,5.62
2018-03-23T14:43:15.569Z,4.95
2018-03-23T14:45:49.924Z,4.00
2018-03-23T14:48:23.539Z,4.90
2018-03-23T14:50:57.125Z,6.35
2018-03-23T14:53:30.680Z,6.40
2018-03-23T14:56:05.150Z,7.20
2018-03-23T14:58:44.512Z,8.32
2018-03-23T15:01:18.100Z,8.30
2018-03-23T15:03:51.656Z,13.10
2018-03-23T15:06:25.171Z,8.85
2018-03-23T15:08:58.790Z,7.37
2018-03-23T15:11:32.395Z,7.80
2018-03-23T15:14:15.732Z,7.07
2018-03-23T15:16:49.369Z,7.40
2018-03-23T15:19:23.118Z,7.07
2018-03-23T15:21:56.707Z,27.30
2018-03-23T15:24:30.247Z,11.38
2018-03-23T15:27:03.745Z,7.12
2018-03-23T15:29:37.459Z,8.10
2018-03-23T15:32:11.014Z,8.93
2018-03-23T15:34:44.565Z,8.48
2018-03-23T15:37:18.249Z,10.35
2018-03-23T15:39:51.827Z,10.95
2018-03-23T15:42:25.366Z,10.23
2018-03-23T15:44:58.921Z,9.88
2018-03-23T15:47:33.271Z,10.73
2018-03-23T15:50:06.971Z,10.77
2018-03-23T15:52:40.669Z,10.50
2018-03-23T15:55:14.250Z,13.55
2018-03-23T15:57:49.298Z,12.80
2018-03-23T16:00:22.887Z,14.55
2018-03-23T16:02:56.570Z,12.25
2018-03-23T16:05:30.183Z,7.80
2018-03-23T16:08:03.715Z,10.90
2018-03-23T16:10:38.006Z,7.82
2018-03-23T16:13:11.768Z,8.10
2018-03-23T16:15:45.403Z,7.70
2018-03-23T16:18:19.075Z,9.40
2018-03-23T16:20:52.718Z,17.50
2018-03-23T16:23:26.374Z,27.00
2018-03-23T16:25:59.946Z,23.02
2018-03-23T16:28:33.673Z,31.23
2018-03-23T16:31:07.215Z,9.05
2018-03-23T16:33:41.639Z,11.60
2018-03-23T16:36:15.241Z,8.07
2018-03-23T16:38:48.760Z,8.38
2018-03-23T16:41:23.277Z,43.15
2018-03-23T16:43:56.807Z,42.33
2018-03-23T16:46:31.249Z,9.35
2018-03-23T16:49:04.815Z,7.60
2018-03-23T16:51:38.313Z,8.40
2018-03-23T16:54:11.922Z,11.77
2018-03-23T16:56:45.608Z,32.45
2018-03-23T16:59:19.203Z,9.63
2018-03-23T17:01:52.763Z,18.25
2018-03-23T17:04:26.375Z,17.27
2018-03-23T17:06:59.993Z,12.73
2018-03-23T17:09:33.536Z,14.65
2018-03-23T17:12:07.223Z,13.52
2018-03-23T17:14:40.787Z,13.77
2018-03-23T17:17:14.387Z,12.20
2018-03-23T17:19:47.902Z,13.02
2018-03-23T17:22:21.496Z,9.90
2018-03-23T17:24:55.039Z,20.80
2018-03-23T17:27:28.602Z,14.38
2018-03-23T17:30:02.163Z,12.60
2018-03-23T17:32:35.785Z,12.82
2018-03-23T17:35:09.304Z,13.93
2018-03-23T17:37:42.867Z,12.60
2018-03-23T17:40:17.223Z,11.50
2018-03-23T17:42:50.807Z,9.00
2018-03-23T17:45:24.347Z,13.27
2018-03-23T17:47:58.644Z,28.05
2018-03-23T17:50:32.210Z,15.38
2018-03-23T17:53:05.781Z,11.45
2018-03-23T17:55:39.365Z,13.98
2018-03-23T17:58:12.920Z,12.43
2018-03-23T18:00:46.520Z,16.80
2018-03-23T18:03:20.867Z,14.77
2018-03-23T18:05:54.582Z,15.02
2018-03-23T18:08:28.174Z,13.40
2018-03-23T18:11:01.875Z,14.25
2018-03-23T18:13:35.466Z,15.20
2018-03-23T18:16:09.053Z,14.32
2018-03-23T18:18:42.656Z,12.10
2018-03-23T18:21:16.266Z,13.77
2018-03-23T18:23:49.846Z,13.50
2018-03-23T18:26:23.394Z,15.50
2018-03-23T18:28:57.067Z,15.38
2018-03-23T18:31:30.625Z,15.10
2018-03-23T18:34:04.284Z,15.38
2018-03-23T18:36:38.016Z,15.50
2018-03-23T18:39:12.306Z,13.23
2018-03-23T18:41:45.868Z,12.15
2018-03-23T18:44:19.471Z,13.77
2018-03-23T18:46:53.839Z,14.90
2018-03-23T18:49:27.370Z,13.88
2018-03-23T18:52:02.083Z,16.10
2018-03-23T18:54:35.744Z,15.43
2018-03-23T18:57:09.700Z,15.20
2018-03-23T18:59:43.443Z,15.00
2018-03-23T19:02:17.180Z,14.15
2018-03-23T19:04:50.730Z,16.25
2018-03-23T19:07:24.562Z,15.45
2018-03-23T19:09:58.310Z,15.90
2018-03-23T19:12:32.195Z,15.15
2018-03-23T19:15:05.740Z,15.13
2018-03-23T19:17:39.263Z,15.25
2018-03-23T19:20:12.852Z,15.55
2018-03-23T19:22:46.444Z,16.70
2018-03-23T19:25:20.062Z,16.55
2018-03-23T19:27:54.481Z,25.60
2018-03-23T19:30:28.153Z,17.67
2018-03-23T19:33:01.848Z,17.23
2018-03-23T19:35:35.364Z,20.88
2018-03-23T19:38:09.798Z,15.20
2018-03-23T19:40:43.379Z,16.87
2018-03-23T19:43:16.952Z,19.05
2018-03-23T19:45:51.235Z,16.17
2018-03-23T19:48:24.974Z,24.23
2018-03-23T19:50:58.866Z,17.77
2018-03-23T19:53:32.642Z,14.90
2018-03-23T19:56:06.237Z,14.20
2018-03-23T19:58:39.857Z,13.55
2018-03-23T20:01:13.539Z,12.40
2018-03-23T20:03:47.870Z,14.30
2018-03-23T20:06:21.454Z,17.75
2018-03-23T20:08:54.985Z,15.77
2018-03-23T20:11:28.706Z,15.07
2018-03-23T20:14:07.980Z,16.23
2018-03-23T20:16:41.520Z,15.27
2018-03-23T20:19:15.152Z,16.20
2018-03-23T20:21:48.823Z,17.52
2018-03-23T20:24:28.104Z,16.00
2018-03-23T20:27:02.180Z,12.93
2018-03-23T20:29:35.864Z,13.45
2018-03-23T20:32:15.370Z,13.90
2018-03-23T20:34:49.139Z,14.18
2018-03-23T20:37:22.698Z,13.23
2018-03-23T20:39:56.311Z,12.50
2018-03-23T20:42:29.927Z,13.10
2018-03-23T20:45:03.607Z,13.20
2018-03-23T20:47:37.116Z,13.80
2018-03-23T20:50:10.695Z,13.73
2018-03-23T20:52:44.383Z,11.63
2018-03-23T20:55:18.722Z,12.27
2018-03-23T20:57:52.434Z,14.90
2018-03-23T21:00:25.978Z,16.73
2018-03-23T21:02:59.748Z,15.65
2018-03-23T21:05:33.322Z,14.98
2018-03-23T21:08:06.853Z,14.40
2018-03-23T21:10:40.416Z,14.70
2018-03-23T21:13:13.940Z,12.60
2018-03-23T21:15:47.459Z,12.93
2018-03-23T21:18:21.118Z,11.20
2018-03-23T21:20:54.633Z,12.65
2018-03-23T21:23:28.157Z,12.18
2018-03-23T21:26:02.438Z,13.93
2018-03-23T21:28:36.082Z,14.80
2018-03-23T21:31:09.634Z,16.10
2018-03-23T21:33:43.346Z,15.05
2018-03-23T21:36:17.651Z,15.95
2018-03-23T21:38:51.434Z,11.27
2018-03-23T21:41:25.102Z,12.27
2018-03-23T21:44:00.195Z,12.85
2018-03-23T21:46:33.905Z,12.80
2018-03-23T21:49:07.473Z,12.65
2018-03-23T21:51:41.754Z,15.57
2018-03-23T21:54:15.402Z,20.17
2018-03-23T21:56:49.922Z,17.98
2018-03-23T21:59:23.643Z,37.75
2018-03-23T22:01:57.150Z,48.55
2018-03-23T22:04:31.469Z,33.20
2018-03-23T22:07:05.152Z,38.95
2018-03-23T22:09:39.469Z,27.05
2018-03-23T22:12:12.958Z,25.85
2018-03-23T22:14:47.429Z,17.35
2018-03-23T22:17:21.078Z,16.77
2018-03-23T22:19:54.611Z,14.45
2018-03-23T22:22:28.142Z,14.18
2018-03-23T22:25:01.689Z,49.58
2018-03-23T22:27:35.259Z,75.80
2018-03-23T22:30:08.871Z,56.72
2018-03-23T22:32:42.410Z,21.52
2018-03-23T22:35:16.010Z,15.13
2018-03-23T22:37:49.594Z,10.10
2018-03-23T22:40:23.222Z,11.35
2018-03-23T22:42:56.748Z,13.15
2018-03-23T22:45:30.241Z,13.90
2018-03-23T22:48:04.528Z,14.60
2018-03-23T22:50:38.370Z,15.60
2018-03-23T22:53:11.929Z,14.23
2018-03-23T22:55:46.267Z,13.13
2018-03-23T22:58:20.807Z,25.15
2018-03-23T23:00:54.374Z,31.45
2018-03-23T23:03:27.936Z,16.27
2018-03-23T23:06:01.591Z,14.27
2018-03-23T23:08:35.141Z,20.80
2018-03-23T23:11:08.682Z,13.80
2018-03-23T23:13:42.275Z,18.55
2018-03-23T23:16:15.869Z,25.02
2018-03-23T23:18:49.855Z,21.33
2018-03-23T23:21:23.497Z,14.98
2018-03-23T23:23:57.007Z,15.75
2018-03-23T23:26:30.572Z,14.70
2018-03-23T23:29:04.188Z,15.60
2018-03-23T23:31:38.516Z,14.65
2018-03-23T23:34:12.213Z,12.18
2018-03-23T23:36:45.800Z,11.50
2018-03-23T23:39:19.394Z,11.70
2018-03-23T23:41:53.892Z,11.55
2018-03-23T23:44:28.447Z,11.95
2018-03-23T23:47:02.920Z,12.35
2018-03-23T23:49:36.691Z,12.20
2018-03-23T23:52:10.212Z,12.32
2018-03-23T23:54:43.777Z,10.35
2018-03-23T23:57:17.383Z,11.60
2018-03-23T23:59:50.985Z,12.55
